createdAt,value
2018-11-05T00:01:22.673Z,84.27
2018-11-05T00:03:51.976Z,68.47
2018-11-05T00:06:21.210Z,82.80
2018-11-05T00:08:50.378Z,93.17
2018-11-05T00:11:19.581Z,97.53
2018-11-05T00:13:48.832Z,72.73
2018-11-05T00:16:17.998Z,87.03
2018-11-05T00:21:51.193Z,87.00
2018-11-05T00:24:20.401Z,78.07
2018-11-05T00:26:49.615Z,86.70
2018-11-05T00:29:18.775Z,71.80
2018-11-05T00:31:47.960Z,73.40
2018-11-05T00:34:17.152Z,63.80
2018-11-05T00:36:46.308Z,89.27
2018-11-05T00:39:15.569Z,92.10
2018-11-05T00:41:44.762Z,93.13
2018-11-05T00:44:13.963Z,76.37
2018-11-05T00:46:43.149Z,82.87
2018-11-05T00:49:12.363Z,76.97
2018-11-05T00:51:42.117Z,86.03
2018-11-05T00:54:11.319Z,81.63
2018-11-05T00:56:40.522Z,78.93
2018-11-05T00:59:09.756Z,84.63
2018-11-05T01:01:38.982Z,88.93
2018-11-05T01:04:08.226Z,86.87
2018-11-05T01:06:37.437Z,70.77
2018-11-05T01:09:07.827Z,72.47
2018-11-05T01:11:37.438Z,82.73
2018-11-05T01:17:07.509Z,74.10
2018-11-05T01:19:36.695Z,62.27
2018-11-05T01:22:06.008Z,78.00
2018-11-05T01:24:35.193Z,80.10
2018-11-05T01:27:04.410Z,68.90
2018-11-05T01:29:33.596Z,75.83
2018-11-05T01:32:25.822Z,71.67
2018-11-05T01:34:55.012Z,54.50
2018-11-05T01:37:24.193Z,57.13
2018-11-05T01:39:53.382Z,63.70
2018-11-05T01:42:29.645Z,75.93
2018-11-05T01:44:58.855Z,69.73
2018-11-05T01:47:28.078Z,74.00
2018-11-05T01:49:57.283Z,84.83
2018-11-05T01:52:26.491Z,71.70
2018-11-05T01:54:55.687Z,78.10
2018-11-05T01:57:24.909Z,74.17
2018-11-05T01:59:54.071Z,79.40
2018-11-05T02:02:29.106Z,89.07
2018-11-05T02:04:58.286Z,72.97
2018-11-05T02:07:27.491Z,60.33
2018-11-05T02:10:25.921Z,56.20
2018-11-05T02:12:55.075Z,62.30
2018-11-05T02:15:24.262Z,68.47
2018-11-05T02:17:53.460Z,61.63
2018-11-05T02:20:22.629Z,74.17
2018-11-05T02:22:51.893Z,54.23
2018-11-05T02:25:21.070Z,73.77
2018-11-05T02:27:50.371Z,53.47
2018-11-05T02:30:20.002Z,56.23
2018-11-05T02:32:49.174Z,85.53
2018-11-05T02:35:18.970Z,74.67
2018-11-05T02:40:48.623Z,69.70
2018-11-05T02:43:17.798Z,79.63
2018-11-05T02:45:47.017Z,87.63
2018-11-05T02:48:16.216Z,57.47
2018-11-05T02:50:45.386Z,72.90
2018-11-05T02:53:14.604Z,66.97
2018-11-05T02:55:43.783Z,91.37
2018-11-05T02:58:12.960Z,79.60
2018-11-05T03:03:42.622Z,85.63
2018-11-05T03:06:25.998Z,69.27
2018-11-05T03:08:55.207Z,60.33
2018-11-05T03:11:24.446Z,87.97
2018-11-05T03:13:53.625Z,61.03
2018-11-05T03:16:22.831Z,64.83
2018-11-05T03:18:52.005Z,80.90
2018-11-05T03:21:21.205Z,60.50
2018-11-05T03:23:50.411Z,60.00
2018-11-05T03:26:19.610Z,65.97
2018-11-05T03:28:48.818Z,89.30
2018-11-05T03:31:18.026Z,72.33
2018-11-05T03:33:47.191Z,77.97
2018-11-05T03:36:16.383Z,89.43
2018-11-05T03:38:45.569Z,58.03
2018-11-05T03:41:14.737Z,88.20
2018-11-05T03:43:43.961Z,61.43
2018-11-05T03:46:13.133Z,51.00
2018-11-05T03:48:42.315Z,78.37
2018-11-05T03:51:11.526Z,57.33
2018-11-05T03:53:40.744Z,64.80
2018-11-05T03:56:10.027Z,104.87
2018-11-05T03:58:39.172Z,81.93
2018-11-05T04:01:27.294Z,93.17
2018-11-05T04:03:56.507Z,68.27
2018-11-05T04:06:25.736Z,81.47
2018-11-05T04:08:54.901Z,52.33
2018-11-05T04:11:24.101Z,93.43
2018-11-05T04:13:53.522Z,90.40
2018-11-05T04:16:22.700Z,66.73
2018-11-05T04:18:51.852Z,65.20
2018-11-05T04:21:21.057Z,75.87
2018-11-05T04:23:50.249Z,80.77
2018-11-05T04:26:19.425Z,76.23
2018-11-05T04:31:48.826Z,93.43
2018-11-05T04:34:18.019Z,57.87
2018-11-05T04:36:47.210Z,93.00
2018-11-05T04:39:16.870Z,92.10
2018-11-05T04:41:46.070Z,78.00
2018-11-05T04:44:15.258Z,89.03
2018-11-05T04:46:44.466Z,72.37
2018-11-05T04:49:13.694Z,55.67
2018-11-05T04:51:42.859Z,75.63
2018-11-05T04:54:12.067Z,85.93
2018-11-05T04:56:41.242Z,51.53
2018-11-05T04:59:10.477Z,68.00
2018-11-05T05:01:39.622Z,65.33
2018-11-05T05:04:08.778Z,66.90
2018-11-05T05:06:38.027Z,70.57
2018-11-05T05:09:11.393Z,79.87
2018-11-05T05:11:40.771Z,66.00
2018-11-05T05:14:10.944Z,63.03
2018-11-05T05:16:40.266Z,80.30
2018-11-05T05:19:09.422Z,65.60
2018-11-05T05:21:38.578Z,59.47
2018-11-05T05:24:26.703Z,79.90
2018-11-05T05:26:55.951Z,67.60
2018-11-05T05:29:25.192Z,63.13
2018-11-05T05:34:47.871Z,60.33
2018-11-05T05:37:17.078Z,73.33
2018-11-05T05:39:46.306Z,53.73
2018-11-05T05:42:16.271Z,60.20
2018-11-05T05:44:45.469Z,75.73
2018-11-05T05:47:14.749Z,68.27
2018-11-05T05:49:44.114Z,74.00
2018-11-05T05:52:13.345Z,67.40
2018-11-05T05:54:42.521Z,65.67
2018-11-05T05:57:11.802Z,68.50
2018-11-05T05:59:40.975Z,62.57
2018-11-05T06:02:26.748Z,55.07
2018-11-05T06:04:55.914Z,69.13
2018-11-05T06:07:25.138Z,66.40
2018-11-05T06:09:54.313Z,52.50
2018-11-05T06:12:23.538Z,59.60
2018-11-05T06:14:52.718Z,62.57
2018-11-05T06:17:21.893Z,65.20
2018-11-05T06:19:51.112Z,75.40
2018-11-05T06:22:20.286Z,73.37
2018-11-05T06:24:49.531Z,68.03
2018-11-05T06:27:18.729Z,76.27
2018-11-05T06:29:47.980Z,62.43
2018-11-05T06:32:27.241Z,69.80
2018-11-05T06:34:56.486Z,72.43
2018-11-05T06:37:25.674Z,78.23
2018-11-05T06:39:54.865Z,78.73
2018-11-05T06:42:24.079Z,79.53
2018-11-05T06:44:53.303Z,77.07
2018-11-05T06:47:22.597Z,70.53
2018-11-05T06:49:51.797Z,75.63
2018-11-05T06:52:21.056Z,77.93
2018-11-05T06:54:50.214Z,60.50
2018-11-05T06:57:19.609Z,75.37
2018-11-05T06:59:48.857Z,58.93
2018-11-05T07:02:28.060Z,63.80
2018-11-05T07:04:57.333Z,64.93
2018-11-05T07:07:26.480Z,71.20
2018-11-05T07:09:55.718Z,44.17
2018-11-05T07:12:24.853Z,68.40
2018-11-05T07:17:54.432Z,68.53
2018-11-05T07:20:23.628Z,55.73
2018-11-05T07:25:53.017Z,62.63
2018-11-05T07:28:28.068Z,66.97
2018-11-05T07:31:25.971Z,58.17
2018-11-05T07:33:55.266Z,95.20
2018-11-05T07:36:28.066Z,108.47
2018-11-05T07:39:24.543Z,51.63
2018-11-05T07:41:53.825Z,63.57
2018-11-05T07:44:28.849Z,68.87
2018-11-05T07:47:24.586Z,45.90
2018-11-05T07:49:53.834Z,63.43
2018-11-05T07:52:29.138Z,54.53
2018-11-05T07:55:25.072Z,50.07
2018-11-05T07:57:54.318Z,64.60
2018-11-05T08:00:29.137Z,61.80
2018-11-05T08:03:25.146Z,47.37
2018-11-05T08:05:54.845Z,58.90
2018-11-05T08:08:24.159Z,51.40
2018-11-05T08:10:53.322Z,44.57
2018-11-05T08:13:22.541Z,51.17
2018-11-05T08:15:51.744Z,49.60
2018-11-05T08:18:20.985Z,47.50
2018-11-05T08:20:50.828Z,51.10
2018-11-05T08:23:27.065Z,55.03
2018-11-05T08:25:56.320Z,44.47
2018-11-05T08:28:25.486Z,42.53
2018-11-05T08:30:54.668Z,48.90
2018-11-05T08:33:23.936Z,43.07
2018-11-05T08:35:53.110Z,38.87
2018-11-05T08:38:28.128Z,40.73
2018-11-05T08:40:57.318Z,40.70
2018-11-05T08:43:26.486Z,41.73
2018-11-05T08:45:55.750Z,44.17
2018-11-05T08:48:24.944Z,45.50
2018-11-05T08:50:54.362Z,40.90
2018-11-05T08:53:23.405Z,45.33
2018-11-05T08:55:52.699Z,40.17
2018-11-05T08:58:22.090Z,38.40
2018-11-05T09:00:55.632Z,33.87
2018-11-05T09:03:24.828Z,40.17
2018-11-05T09:05:54.677Z,41.80
2018-11-05T09:08:23.834Z,30.10
2018-11-05T09:10:53.474Z,38.77
2018-11-05T09:13:22.394Z,41.07
2018-11-05T09:15:51.591Z,34.30
2018-11-05T09:18:20.839Z,38.87
2018-11-05T09:23:50.717Z,38.13
2018-11-05T09:26:19.894Z,40.40
2018-11-05T09:28:49.088Z,38.27
2018-11-05T09:31:18.495Z,34.20
2018-11-05T09:33:48.703Z,35.63
2018-11-05T09:36:17.878Z,34.40
2018-11-05T09:38:47.133Z,40.43
2018-11-05T09:41:16.408Z,42.87
2018-11-05T09:43:46.116Z,39.00
2018-11-05T09:46:15.369Z,38.70
2018-11-05T09:51:46.086Z,41.53
2018-11-05T09:54:15.445Z,41.17
2018-11-05T09:56:44.684Z,37.87
2018-11-05T09:59:13.954Z,34.23
2018-11-05T10:01:43.116Z,25.53
2018-11-05T10:04:12.426Z,29.20
2018-11-05T10:06:41.662Z,28.47
2018-11-05T10:09:12.396Z,23.13
2018-11-05T10:11:41.611Z,28.77
2018-11-05T10:14:10.967Z,24.93
2018-11-05T10:16:40.159Z,30.30
2018-11-05T10:19:09.362Z,29.97
2018-11-05T10:21:38.691Z,28.10
2018-11-05T10:24:07.903Z,27.23
2018-11-05T10:26:37.157Z,25.90
2018-11-05T10:29:07.199Z,29.17
2018-11-05T10:31:36.403Z,27.37
2018-11-05T10:34:05.819Z,24.60
2018-11-05T10:36:35.056Z,25.40
2018-11-05T10:39:05.166Z,28.10
2018-11-05T10:41:35.381Z,25.00
2018-11-05T10:44:25.191Z,25.77
2018-11-05T10:46:54.519Z,22.13
2018-11-05T10:49:23.711Z,26.63
2018-11-05T10:51:52.919Z,21.60
2018-11-05T10:54:22.129Z,23.67
2018-11-05T10:56:51.425Z,23.37
2018-11-05T10:59:20.626Z,24.10
2018-11-05T11:04:32.350Z,23.80
2018-11-05T11:07:02.208Z,24.63
2018-11-05T11:09:31.687Z,27.60
2018-11-05T11:12:26.197Z,26.03
2018-11-05T11:14:55.654Z,21.93
2018-11-05T11:17:25.001Z,23.90
2018-11-05T11:22:54.602Z,26.47
2018-11-05T11:25:23.812Z,24.37
2018-11-05T11:27:53.178Z,26.57
2018-11-05T11:30:22.459Z,26.23
2018-11-05T11:32:52.647Z,24.17
2018-11-05T11:35:22.118Z,22.87
2018-11-05T11:37:51.297Z,24.33
2018-11-05T11:40:22.116Z,23.60
2018-11-05T11:42:52.101Z,21.73
2018-11-05T11:45:22.225Z,23.93
2018-11-05T11:47:51.479Z,23.93
2018-11-05T11:50:20.924Z,20.90
2018-11-05T11:52:50.613Z,25.13
2018-11-05T11:55:28.003Z,23.00
2018-11-05T11:57:57.337Z,23.80
2018-11-05T12:00:26.849Z,26.13
2018-11-05T12:03:24.996Z,22.10
2018-11-05T12:05:55.666Z,23.03
2018-11-05T12:08:24.961Z,24.97
2018-11-05T12:10:54.745Z,22.30
2018-11-05T12:13:24.711Z,26.10
2018-11-05T12:15:54.037Z,26.70
2018-11-05T12:18:24.106Z,24.40
2018-11-05T12:20:54.398Z,20.57
2018-11-05T12:23:26.165Z,23.83
2018-11-05T12:25:55.500Z,25.57
2018-11-05T12:28:24.673Z,23.07
2018-11-05T12:30:54.411Z,23.93
2018-11-05T12:33:23.771Z,23.60
2018-11-05T12:35:53.006Z,27.50
2018-11-05T12:38:28.324Z,23.23
2018-11-05T12:40:57.871Z,24.63
2018-11-05T12:43:27.749Z,24.90
2018-11-05T12:45:56.974Z,20.90
2018-11-05T12:48:26.145Z,22.63
2018-11-05T12:50:55.361Z,25.43
2018-11-05T12:53:24.556Z,21.57
2018-11-05T12:55:53.907Z,24.20
2018-11-05T12:58:23.314Z,28.60
2018-11-05T13:00:52.656Z,24.23
2018-11-05T13:03:21.982Z,20.83
2018-11-05T13:05:51.184Z,25.40
2018-11-05T13:08:20.417Z,24.83
2018-11-05T13:10:49.592Z,20.40
2018-11-05T13:13:18.776Z,23.87
2018-11-05T13:15:48.001Z,20.13
2018-11-05T13:18:17.172Z,23.83
2018-11-05T13:23:47.541Z,23.23
2018-11-05T13:26:17.156Z,23.80
2018-11-05T14:04:55.224Z,22.70
2018-11-05T14:07:24.406Z,20.10
2018-11-05T14:09:53.578Z,24.63
2018-11-05T14:12:22.797Z,22.97
2018-11-05T14:14:51.944Z,20.77
2018-11-05T14:17:21.115Z,26.50
2018-11-05T14:19:50.338Z,24.93
2018-11-05T14:22:19.513Z,24.70
2018-11-05T14:24:48.688Z,29.20
2018-11-05T14:27:17.957Z,21.03
2018-11-05T14:33:03.829Z,21.63
2018-11-05T14:35:33.010Z,23.57
2018-11-05T14:38:02.267Z,24.53
2018-11-05T14:40:31.464Z,21.70
2018-11-05T14:43:00.698Z,17.10
2018-11-05T14:45:29.926Z,26.63
2018-11-05T14:47:59.175Z,23.27
2018-11-05T14:50:28.435Z,25.47
2018-11-05T14:52:58.174Z,23.50
2018-11-05T14:55:27.417Z,29.13
2018-11-05T14:58:25.918Z,24.50
2018-11-05T15:00:55.114Z,27.13
2018-11-05T15:03:24.391Z,40.20
2018-11-05T15:05:53.600Z,24.30
2018-11-05T15:08:22.833Z,20.70
2018-11-05T15:10:51.999Z,28.20
2018-11-05T15:13:21.183Z,32.57
2018-11-05T15:15:50.405Z,25.70
2018-11-05T15:18:19.660Z,21.67
2018-11-05T15:20:48.911Z,30.50
2018-11-05T15:23:18.090Z,26.83
2018-11-05T15:28:48.062Z,23.30
2018-11-05T15:32:46.536Z,29.13
2018-11-05T15:35:15.903Z,28.83
2018-11-05T15:37:45.457Z,26.20
2018-11-05T15:40:15.894Z,21.37
2018-11-05T15:42:45.232Z,16.63
2018-11-05T15:45:15.712Z,25.80
2018-11-05T15:47:44.946Z,28.87
2018-11-05T15:50:15.639Z,31.20
2018-11-05T15:53:32.411Z,24.07
2018-11-05T15:56:01.358Z,23.00
2018-11-05T15:58:30.567Z,22.97
2018-11-05T16:00:59.736Z,21.93
2018-11-05T16:03:29.059Z,21.83
2018-11-05T16:05:58.293Z,23.10
2018-11-05T16:08:27.534Z,17.00
2018-11-05T16:10:56.742Z,19.23
2018-11-05T16:13:26.060Z,17.37
2018-11-05T16:16:24.648Z,20.67
2018-11-05T16:18:53.802Z,23.07
2018-11-05T16:21:29.476Z,18.87
2018-11-05T16:23:58.694Z,20.30
2018-11-05T16:26:27.861Z,18.40
2018-11-05T16:28:57.059Z,19.83
2018-11-05T16:31:26.369Z,18.37
2018-11-05T16:33:55.562Z,22.53
2018-11-05T16:36:28.007Z,20.87
2018-11-05T16:38:57.193Z,22.27
2018-11-05T16:41:26.430Z,19.13
2018-11-05T16:43:55.694Z,19.40
2018-11-05T16:46:28.323Z,20.10
2018-11-05T16:49:24.667Z,20.33
2018-11-05T16:54:54.422Z,16.57
2018-11-05T16:57:23.743Z,16.20
2018-11-05T16:59:53.600Z,19.67
2018-11-05T17:02:29.840Z,17.10
2018-11-05T17:04:59.149Z,18.20
2018-11-05T17:07:28.905Z,23.73
2018-11-05T17:09:58.345Z,16.47
2018-11-05T17:12:27.565Z,15.77
2018-11-05T17:15:26.129Z,19.30
2018-11-05T17:17:55.332Z,19.20
2018-11-05T17:20:24.548Z,16.57
2018-11-05T17:22:53.792Z,17.60
2018-11-05T17:25:29.164Z,18.07
2018-11-05T17:28:25.308Z,20.17
2018-11-05T17:34:25.098Z,20.47
2018-11-05T17:36:54.297Z,33.80
2018-11-05T17:39:29.646Z,32.20
2018-11-05T17:41:58.846Z,26.90
2018-11-05T17:44:28.046Z,30.93
2018-11-05T17:46:57.242Z,26.17
2018-11-05T17:49:27.665Z,20.53
2018-11-05T17:51:57.099Z,24.17
2018-11-05T17:54:27.839Z,20.83
2018-11-05T17:56:57.231Z,17.00
2018-11-05T17:59:27.471Z,18.30
2018-11-05T18:05:25.211Z,21.37
2018-11-05T18:07:54.524Z,23.20
2018-11-05T18:10:29.429Z,18.33
2018-11-05T18:13:25.189Z,16.67
2018-11-05T18:15:54.470Z,18.87
2018-11-05T18:18:23.782Z,23.57
2018-11-05T18:20:53.157Z,20.70
2018-11-05T18:23:22.489Z,25.97
2018-11-05T18:44:25.129Z,21.43
2018-11-05T18:56:25.645Z,18.87
2018-11-05T19:02:24.869Z,27.37
2018-11-05T19:11:25.372Z,20.80
2018-11-05T19:17:24.919Z,19.37
2018-11-05T19:29:24.927Z,21.30
2018-11-05T19:32:42.714Z,22.60
2018-11-05T19:35:12.467Z,20.23
2018-11-05T19:40:42.062Z,23.10
2018-11-05T19:43:27.831Z,20.13
2018-11-05T19:46:26.301Z,24.47
2018-11-05T19:51:55.623Z,24.33
2018-11-05T19:54:28.668Z,31.13
2018-11-05T19:57:24.919Z,26.17
2018-11-05T20:09:25.186Z,17.07
2018-11-05T20:14:55.122Z,23.90
2018-11-05T20:17:24.366Z,20.27
2018-11-05T20:19:53.667Z,23.73
2018-11-05T20:22:22.948Z,23.73
2018-11-05T20:24:52.215Z,27.27
2018-11-05T20:27:21.520Z,25.10
2018-11-05T20:29:51.294Z,21.80
2018-11-05T20:32:28.051Z,20.30
2018-11-05T20:34:56.833Z,20.43
2018-11-05T20:37:26.246Z,19.90
2018-11-05T20:39:55.553Z,21.93
2018-11-05T20:42:24.695Z,23.47
2018-11-05T20:44:53.875Z,20.67
2018-11-05T20:47:28.804Z,22.20
2018-11-05T20:49:57.991Z,20.20
2018-11-05T20:52:27.228Z,23.47
2018-11-05T20:54:56.452Z,27.37
2018-11-05T20:57:25.716Z,25.33
2018-11-05T20:59:55.390Z,24.20
2018-11-05T21:02:28.069Z,24.60
2018-11-05T21:04:57.253Z,22.53
2018-11-05T21:07:26.794Z,22.30
2018-11-05T21:09:56.022Z,21.63
2018-11-05T21:12:25.199Z,21.60
2018-11-05T21:14:54.369Z,21.70
2018-11-05T21:17:24.373Z,21.60
2018-11-05T21:19:53.672Z,22.27
2018-11-05T21:22:23.832Z,21.07
2018-11-05T21:24:52.949Z,21.50
2018-11-05T21:27:22.152Z,21.87
2018-11-05T21:29:51.410Z,21.50
2018-11-05T21:32:27.547Z,22.13
2018-11-05T21:34:56.863Z,22.60
2018-11-05T21:37:26.018Z,20.40
2018-11-05T21:39:55.201Z,22.80
2018-11-05T21:42:24.406Z,23.53
2018-11-05T21:44:53.599Z,17.90
2018-11-05T21:47:22.920Z,22.63
2018-11-05T21:49:52.160Z,21.47
2018-11-05T21:52:21.390Z,23.03
2018-11-05T21:54:50.568Z,22.53
2018-11-05T21:57:27.221Z,26.27
2018-11-05T21:59:56.401Z,18.70
2018-11-05T22:02:29.340Z,17.67
2018-11-05T22:04:58.516Z,24.40
2018-11-05T22:07:27.701Z,19.67
2018-11-05T22:09:56.911Z,18.40
2018-11-05T22:12:26.096Z,19.60
2018-11-05T22:14:55.265Z,18.63
2018-11-05T22:17:24.502Z,18.53
2018-11-05T22:19:53.663Z,19.23
2018-11-05T22:22:22.844Z,16.77
2018-11-05T22:27:52.225Z,17.60
2018-11-05T22:30:27.371Z,19.37
2018-11-05T22:33:25.374Z,20.37
2018-11-05T22:35:54.612Z,18.50
2018-11-05T22:38:23.798Z,25.20
2018-11-05T22:40:53.007Z,21.90
2018-11-05T22:43:22.162Z,14.67
2018-11-05T22:45:51.344Z,20.43
2018-11-05T22:48:20.586Z,15.07
2018-11-05T22:50:49.786Z,19.77
2018-11-05T22:53:28.650Z,17.87
2018-11-05T22:55:57.818Z,21.53
2018-11-05T22:58:26.977Z,18.83
2018-11-05T23:01:01.572Z,16.97
2018-11-05T23:03:31.286Z,18.73
2018-11-05T23:06:00.786Z,18.77
2018-11-05T23:08:30.023Z,17.13
2018-11-05T23:10:59.592Z,20.63
2018-11-05T23:13:28.769Z,18.73
2018-11-05T23:15:57.978Z,21.47
2018-11-05T23:18:27.141Z,22.60
2018-11-05T23:20:56.308Z,22.13
2018-11-05T23:23:25.524Z,16.97
2018-11-05T23:25:54.696Z,18.73
2018-11-05T23:28:23.849Z,21.33
2018-11-05T23:30:53.072Z,21.00
2018-11-05T23:33:22.261Z,19.60
2018-11-05T23:35:51.469Z,18.77
2018-11-05T23:38:21.214Z,16.33
2018-11-05T23:40:50.506Z,21.10
2018-11-05T23:43:27.482Z,16.87
2018-11-05T23:45:56.653Z,17.43
2018-11-05T23:48:25.816Z,20.93
2018-11-05T23:50:55.095Z,14.37
2018-11-05T23:53:24.254Z,15.57
2018-11-05T23:55:53.419Z,19.60
2018-11-05T23:58:22.661Z,21.83
